Time;durP1;ratioP1;P1;durP2;ratioP2;P2;SDS_P1;SDS_P2;PMS_P1;PMS_P2;Temp;Humidity;BMP_temperature;BMP_pressure;BME280_temperature;BME280_humidity;BME280_pressure;Samples;Min_cycle;Max_cycle;Signal;HPM_P1;HPM_P2
2021/05/30 00:00:46;;;;;;;0.10;0.10;;;;;;;;;;4907637;29;20051;-58
2021/05/30 00:03:11;;;;;;;0.00;0.00;;;;;;;;;;4905796;29;20098;-58
2021/05/30 00:05:37;;;;;;;0.10;0.10;;;;;;;;;;4908705;29;20035;-59
2021/05/30 00:08:04;;;;;;;0.10;0.10;;;;;;;;;;4907884;29;20031;-57
2021/05/30 00:10:30;;;;;;;0.43;0.43;;;;;;;;;;4908951;29;20059;-58
2021/05/30 00:12:56;;;;;;;2.58;0.30;;;;;;;;;;4908233;29;20831;-58
2021/05/30 00:15:21;;;;;;;0.00;0.00;;;;;;;;;;4899001;29;20472;-58
2021/05/30 00:17:47;;;;;;;0.00;0.00;;;;;;;;;;4906030;29;20042;-58
2021/05/30 00:20:13;;;;;;;0.25;0.25;;;;;;;;;;4908148;29;20055;-58
2021/05/30 00:22:39;;;;;;;0.13;0.13;;;;;;;;;;4907210;29;20064;-57
2021/05/30 00:25:08;;;;;;;0.20;0.20;;;;;;;;;;4921567;28;20063;-58
2021/05/30 00:27:36;;;;;;;0.45;0.45;;;;;;;;;;4919518;28;20063;-58
2021/05/30 00:30:03;;;;;;;0.63;0.63;;;;;;;;;;4908751;29;20043;-58
2021/05/30 00:32:31;;;;;;;0.00;0.00;;;;;;;;;;4907148;29;20050;-58
2021/05/30 00:34:59;;;;;;;0.10;0.05;;;;;;;;;;4908364;29;20031;-59
2021/05/30 00:37:25;;;;;;;0.20;0.20;;;;;;;;;;4907406;29;20113;-58
2021/05/30 00:39:53;;;;;;;0.00;0.00;;;;;;;;;;4909607;29;20062;-58
2021/05/30 00:42:21;;;;;;;0.20;0.20;;;;;;;;;;4905095;29;20118;-59
2021/05/30 00:44:47;;;;;;;0.00;0.00;;;;;;;;;;4906085;29;20043;-58
2021/05/30 00:47:15;;;;;;;0.85;0.52;;;;;;;;;;4905154;29;20043;-59
2021/05/30 00:49:41;;;;;;;0.32;0.32;;;;;;;;;;4904886;29;21322;-58
2021/05/30 00:52:07;;;;;;;0.50;0.50;;;;;;;;;;4905928;29;20126;-57
2021/05/30 00:54:35;;;;;;;0.20;0.20;;;;;;;;;;4912281;29;20032;-58
2021/05/30 00:57:03;;;;;;;0.00;0.00;;;;;;;;;;4907312;29;20170;-58
2021/05/30 00:59:31;;;;;;;0.00;0.00;;;;;;;;;;4890741;29;20153;-58
2021/05/30 01:01:56;;;;;;;0.00;0.00;;;;;;;;;;4892533;29;20032;-58
2021/05/30 01:04:24;;;;;;;0.00;0.00;;;;;;;;;;4902528;29;20051;-61
2021/05/30 01:06:54;;;;;;;0.00;0.00;;;;;;;;;;4903898;29;20042;-58
2021/05/30 01:09:20;;;;;;;0.70;0.70;;;;;;;;;;4905892;29;21274;-59
2021/05/30 01:11:46;;;;;;;1.00;1.00;;;;;;;;;;4907101;29;20028;-58
2021/05/30 01:14:11;;;;;;;0.32;0.32;;;;;;;;;;4902315;29;20040;-59
2021/05/30 01:16:40;;;;;;;0.40;0.30;;;;;;;;;;4892067;29;20523;-59
2021/05/30 01:19:09;;;;;;;0.00;0.00;;;;;;;;;;4905456;29;20036;-59
2021/05/30 01:21:37;;;;;;;0.00;0.00;;;;;;;;;;4918279;28;20242;-58
2021/05/30 01:24:05;;;;;;;0.10;0.10;;;;;;;;;;4889505;29;21964;-58
2021/05/30 01:26:33;;;;;;;0.00;0.00;;;;;;;;;;4908628;29;20531;-58
2021/05/30 01:28:59;;;;;;;0.10;0.10;;;;;;;;;;4902969;29;22059;-58
2021/05/30 01:31:27;;;;;;;0.00;0.00;;;;;;;;;;4906407;29;20460;-58
2021/05/30 01:33:53;;;;;;;0.00;0.00;;;;;;;;;;4908020;29;20039;-58
2021/05/30 01:36:18;;;;;;;0.13;0.13;;;;;;;;;;4892402;29;20028;-59
2021/05/30 01:38:44;;;;;;;0.00;0.00;;;;;;;;;;4907848;29;20043;-58
2021/05/30 01:41:10;;;;;;;5.28;0.90;;;;;;;;;;4907837;29;20047;-58
2021/05/30 01:43:36;;;;;;;0.10;0.10;;;;;;;;;;4901851;29;20175;-58
2021/05/30 01:46:03;;;;;;;0.00;0.00;;;;;;;;;;4911198;29;20069;-58
2021/05/30 01:48:31;;;;;;;0.00;0.00;;;;;;;;;;4906529;29;20475;-59
2021/05/30 01:50:59;;;;;;;0.10;0.10;;;;;;;;;;4906666;29;20042;-58
2021/05/30 01:53:43;;;;;;;1.23;1.20;;;;;;;;;;4891706;29;20078;-59
2021/05/30 01:58:34;;;;;;;0.00;0.00;;;;;;;;;;4905643;29;20128;-58
2021/05/30 02:00:59;;;;;;;0.45;0.43;;;;;;;;;;4906199;29;20035;-58
2021/05/30 02:03:27;;;;;;;0.10;0.10;;;;;;;;;;4904367;29;20066;-58
2021/05/30 02:05:52;;;;;;;0.05;0.05;;;;;;;;;;4908317;29;20031;-58
2021/05/30 02:08:18;;;;;;;0.00;0.00;;;;;;;;;;4920509;29;20024;-58
2021/05/30 02:10:47;;;;;;;0.00;0.00;;;;;;;;;;4906737;29;20038;-58
2021/05/30 02:13:12;;;;;;;0.75;0.75;;;;;;;;;;4890537;29;20039;-60
2021/05/30 02:15:38;;;;;;;0.00;0.00;;;;;;;;;;4906594;29;20059;-58
2021/05/30 02:18:08;;;;;;;0.03;0.03;;;;;;;;;;4907219;29;20154;-58
2021/05/30 02:20:35;;;;;;;0.00;0.00;;;;;;;;;;4907032;29;20126;-58
2021/05/30 02:23:01;;;;;;;0.00;0.00;;;;;;;;;;4908393;29;20505;-58
2021/05/30 02:25:27;;;;;;;6.30;0.95;;;;;;;;;;4906567;29;20044;-57
2021/05/30 02:27:55;;;;;;;0.50;0.50;;;;;;;;;;4906115;29;20031;-58
2021/05/30 02:30:21;;;;;;;0.00;0.00;;;;;;;;;;4901679;29;21963;-58
2021/05/30 02:32:47;;;;;;;0.00;0.00;;;;;;;;;;4904639;29;20036;-58
2021/05/30 02:35:12;;;;;;;0.00;0.00;;;;;;;;;;4921187;28;20138;-58
2021/05/30 02:37:40;;;;;;;0.00;0.00;;;;;;;;;;4903718;29;20712;-59
2021/05/30 02:40:10;;;;;;;0.43;0.43;;;;;;;;;;4906331;29;20031;-59
2021/05/30 02:42:36;;;;;;;0.20;0.20;;;;;;;;;;4903433;29;20752;-58
2021/05/30 02:45:07;;;;;;;0.15;0.15;;;;;;;;;;4907711;29;20055;-59
2021/05/30 02:47:34;;;;;;;0.03;0.03;;;;;;;;;;4908619;29;20075;-58
2021/05/30 02:49:59;;;;;;;0.00;0.00;;;;;;;;;;4909941;29;20032;-59
2021/05/30 02:52:25;;;;;;;0.80;0.52;;;;;;;;;;4910973;29;20035;-58
2021/05/30 02:54:50;;;;;;;0.35;0.35;;;;;;;;;;4908747;29;20032;-59
2021/05/30 02:57:19;;;;;;;0.35;0.35;;;;;;;;;;4907383;29;20044;-58
2021/05/30 02:59:44;;;;;;;0.00;0.00;;;;;;;;;;4908333;29;20047;-58
2021/05/30 03:02:13;;;;;;;0.00;0.00;;;;;;;;;;4907506;29;20134;-58
2021/05/30 03:04:42;;;;;;;0.10;0.10;;;;;;;;;;4909854;29;20036;-58
2021/05/30 03:07:10;;;;;;;0.38;0.28;;;;;;;;;;4909743;29;20106;-58
2021/05/30 03:09:37;;;;;;;0.05;0.05;;;;;;;;;;4909547;29;20118;-60
2021/05/30 03:12:05;;;;;;;0.00;0.00;;;;;;;;;;4908566;29;21083;-59
2021/05/30 03:14:31;;;;;;;0.45;0.45;;;;;;;;;;4907342;29;20069;-58
2021/05/30 03:16:56;;;;;;;6.55;1.05;;;;;;;;;;4914786;28;20059;-58
2021/05/30 03:19:22;;;;;;;0.00;0.00;;;;;;;;;;4909223;29;20732;-58
2021/05/30 03:21:48;;;;;;;0.00;0.00;;;;;;;;;;4908463;29;20125;-58
2021/05/30 03:24:15;;;;;;;0.30;0.30;;;;;;;;;;4909464;29;20094;-58
2021/05/30 03:26:44;;;;;;;0.28;0.28;;;;;;;;;;4913570;28;20122;-58
2021/05/30 03:29:10;;;;;;;0.00;0.00;;;;;;;;;;4923168;28;20040;-58
2021/05/30 03:31:35;;;;;;;0.30;0.30;;;;;;;;;;4921561;28;22155;-59
2021/05/30 03:34:03;;;;;;;0.00;0.00;;;;;;;;;;4892062;29;20095;-57
2021/05/30 03:36:30;;;;;;;0.15;0.15;;;;;;;;;;4908420;29;20066;-59
2021/05/30 03:39:01;;;;;;;3.05;0.73;;;;;;;;;;4908922;29;20028;-58
2021/05/30 03:41:32;;;;;;;0.00;0.00;;;;;;;;;;4909771;29;20139;-59
2021/05/30 03:44:03;;;;;;;0.00;0.00;;;;;;;;;;4906670;29;20080;-58
2021/05/30 03:46:31;;;;;;;0.08;0.08;;;;;;;;;;4905608;29;20051;-58
2021/05/30 03:49:00;;;;;;;0.10;0.10;;;;;;;;;;4906815;29;20047;-59
2021/05/30 03:51:30;;;;;;;0.10;0.10;;;;;;;;;;4899045;29;20496;-59
2021/05/30 03:53:56;;;;;;;0.15;0.08;;;;;;;;;;4908557;29;20032;-57
2021/05/30 03:56:24;;;;;;;0.00;0.00;;;;;;;;;;4907821;29;20043;-59
2021/05/30 03:58:52;;;;;;;0.20;0.20;;;;;;;;;;4908295;29;20175;-59
2021/05/30 04:01:17;;;;;;;0.10;0.10;;;;;;;;;;4907189;29;20126;-59
2021/05/30 04:03:42;;;;;;;0.00;0.00;;;;;;;;;;4905728;29;20059;-58
2021/05/30 04:06:08;;;;;;;0.00;0.00;;;;;;;;;;4908576;29;20161;-58
2021/05/30 04:08:36;;;;;;;0.00;0.00;;;;;;;;;;4905817;29;20036;-58
2021/05/30 04:11:01;;;;;;;0.03;0.03;;;;;;;;;;4898987;29;20070;-57
2021/05/30 04:13:30;;;;;;;0.17;0.17;;;;;;;;;;4906420;29;20086;-59
2021/05/30 04:16:00;;;;;;;0.20;0.20;;;;;;;;;;4907728;29;20032;-59
2021/05/30 04:18:25;;;;;;;0.20;0.20;;;;;;;;;;4907286;29;20922;-59
2021/05/30 04:20:50;;;;;;;0.00;0.00;;;;;;;;;;4906482;29;20094;-58
2021/05/30 04:23:18;;;;;;;0.00;0.00;;;;;;;;;;4907664;29;20054;-58
2021/05/30 04:25:48;;;;;;;0.17;0.17;;;;;;;;;;4907653;29;20036;-58
2021/05/30 04:28:14;;;;;;;0.00;0.00;;;;;;;;;;4907552;29;20054;-58
2021/05/30 04:30:45;;;;;;;0.10;0.10;;;;;;;;;;4906181;29;20059;-60
2021/05/30 04:33:13;;;;;;;0.00;0.00;;;;;;;;;;4906047;29;20146;-58
2021/05/30 04:35:38;;;;;;;0.10;0.10;;;;;;;;;;4892181;29;20031;-58
2021/05/30 04:38:04;;;;;;;0.00;0.00;;;;;;;;;;4893034;29;20067;-59
2021/05/30 04:40:29;;;;;;;0.00;0.00;;;;;;;;;;4907081;29;20448;-59
2021/05/30 04:42:54;;;;;;;1.55;0.63;;;;;;;;;;4891798;29;20028;-59
2021/05/30 04:45:20;;;;;;;0.00;0.00;;;;;;;;;;4907410;29;20123;-58
2021/05/30 04:47:46;;;;;;;1.10;0.45;;;;;;;;;;4904989;29;20491;-58
2021/05/30 04:50:12;;;;;;;0.20;0.20;;;;;;;;;;4908526;29;20108;-59
2021/05/30 04:52:41;;;;;;;0.20;0.20;;;;;;;;;;4904812;29;20119;-58
2021/05/30 04:55:09;;;;;;;0.00;0.00;;;;;;;;;;4906533;29;20028;-58
2021/05/30 04:57:35;;;;;;;0.25;0.25;;;;;;;;;;4906161;29;20027;-59
2021/05/30 05:00:04;;;;;;;0.17;0.17;;;;;;;;;;4905904;29;20760;-58
2021/05/30 05:02:29;;;;;;;0.05;0.05;;;;;;;;;;4903597;29;20039;-59
2021/05/30 05:04:55;;;;;;;0.40;0.40;;;;;;;;;;4905958;29;20034;-58
2021/05/30 05:07:21;;;;;;;0.43;0.43;;;;;;;;;;4906257;29;20032;-59
2021/05/30 05:09:49;;;;;;;0.32;0.22;;;;;;;;;;4922040;28;20054;-59
2021/05/30 05:12:15;;;;;;;0.00;0.00;;;;;;;;;;4906122;29;20035;-58
2021/05/30 05:14:43;;;;;;;0.47;0.30;;;;;;;;;;4906034;29;20043;-59
2021/05/30 05:17:09;;;;;;;0.00;0.00;;;;;;;;;;4905392;29;20044;-59
2021/05/30 05:19:35;;;;;;;0.57;0.57;;;;;;;;;;4906919;29;20035;-59
2021/05/30 05:22:01;;;;;;;0.10;0.10;;;;;;;;;;4906712;29;20462;-59
2021/05/30 05:24:26;;;;;;;0.00;0.00;;;;;;;;;;4905068;29;20031;-59
2021/05/30 05:26:54;;;;;;;0.00;0.00;;;;;;;;;;4904279;29;20028;-59
2021/05/30 05:29:20;;;;;;;0.25;0.10;;;;;;;;;;4917169;28;20042;-58
2021/05/30 05:31:46;;;;;;;0.05;0.05;;;;;;;;;;4904736;29;20475;-59
2021/05/30 05:34:11;;;;;;;0.00;0.00;;;;;;;;;;4906149;29;20043;-58
2021/05/30 05:36:39;;;;;;;0.00;0.00;;;;;;;;;;4904548;29;20082;-58
2021/05/30 05:39:04;;;;;;;0.28;0.20;;;;;;;;;;4906387;29;20032;-58
2021/05/30 05:41:30;;;;;;;0.03;0.03;;;;;;;;;;4904087;29;20476;-60
2021/05/30 05:43:56;;;;;;;0.70;0.20;;;;;;;;;;4904514;29;20044;-58
2021/05/30 05:46:23;;;;;;;0.08;0.08;;;;;;;;;;4904820;29;20300;-58
2021/05/30 05:48:51;;;;;;;0.40;0.40;;;;;;;;;;4908871;29;20047;-58
2021/05/30 05:51:16;;;;;;;1.27;0.95;;;;;;;;;;4902293;29;20847;-58
2021/05/30 05:53:42;;;;;;;0.10;0.10;;;;;;;;;;4906151;29;20036;-59
2021/05/30 05:56:08;;;;;;;0.00;0.00;;;;;;;;;;4905105;29;21533;-59
2021/05/30 05:58:34;;;;;;;0.63;0.63;;;;;;;;;;4905432;29;20114;-59
2021/05/30 06:00:59;;;;;;;0.75;0.65;;;;;;;;;;4885810;29;22087;-59
2021/05/30 06:03:25;;;;;;;0.32;0.32;;;;;;;;;;4906314;29;20114;-59
2021/05/30 06:05:51;;;;;;;0.00;0.00;;;;;;;;;;4905182;29;20071;-59
2021/05/30 06:08:16;;;;;;;0.40;0.40;;;;;;;;;;4906182;29;20035;-59
2021/05/30 06:10:42;;;;;;;0.00;0.00;;;;;;;;;;4905364;29;20039;-58
2021/05/30 06:13:11;;;;;;;0.00;0.00;;;;;;;;;;4904411;29;20516;-58
2021/05/30 06:15:38;;;;;;;0.00;0.00;;;;;;;;;;4906293;29;20051;-58
2021/05/30 06:18:08;;;;;;;0.15;0.10;;;;;;;;;;4920111;28;20032;-60
2021/05/30 06:20:34;;;;;;;0.68;0.35;;;;;;;;;;4909428;29;20046;-60
2021/05/30 06:23:00;;;;;;;0.10;0.10;;;;;;;;;;4909311;29;20038;-58
2021/05/30 06:25:27;;;;;;;0.00;0.00;;;;;;;;;;4908885;29;20035;-60
2021/05/30 06:27:55;;;;;;;0.20;0.20;;;;;;;;;;4908995;29;20028;-59
2021/05/30 06:30:21;;;;;;;0.00;0.00;;;;;;;;;;4906888;29;20029;-59
2021/05/30 06:32:46;;;;;;;0.45;0.45;;;;;;;;;;4924333;29;20031;-59
2021/05/30 06:35:14;;;;;;;0.63;0.17;;;;;;;;;;4908850;29;20035;-59
2021/05/30 06:37:40;;;;;;;0.43;0.40;;;;;;;;;;4914937;29;20059;-61
2021/05/30 06:40:08;;;;;;;0.08;0.08;;;;;;;;;;4916904;29;20028;-60
2021/05/30 06:42:34;;;;;;;0.28;0.28;;;;;;;;;;4906039;29;20028;-58
2021/05/30 06:45:02;;;;;;;0.10;0.10;;;;;;;;;;4893732;29;20090;-60
2021/05/30 06:47:28;;;;;;;0.30;0.22;;;;;;;;;;4909901;29;20035;-60
2021/05/30 06:49:53;;;;;;;0.60;0.22;;;;;;;;;;4907618;29;20087;-60
2021/05/30 06:52:19;;;;;;;0.20;0.20;;;;;;;;;;4908062;29;20550;-60
2021/05/30 06:54:45;;;;;;;0.00;0.00;;;;;;;;;;4891469;29;21915;-60
2021/05/30 06:57:10;;;;;;;0.00;0.00;;;;;;;;;;4909676;29;20082;-60
2021/05/30 06:59:36;;;;;;;0.20;0.10;;;;;;;;;;4908713;29;22201;-60
2021/05/30 07:02:05;;;;;;;0.10;0.10;;;;;;;;;;4891039;29;20039;-60
2021/05/30 07:04:30;;;;;;;0.85;0.52;;;;;;;;;;4908298;29;20031;-59
2021/05/30 07:06:56;;;;;;;0.00;0.00;;;;;;;;;;4910391;29;20487;-59
2021/05/30 07:09:22;;;;;;;0.08;0.08;;;;;;;;;;4907182;29;20114;-60
2021/05/30 07:11:47;;;;;;;0.00;0.00;;;;;;;;;;4891659;29;20038;-59
2021/05/30 07:14:19;;;;;;;1.25;0.52;;;;;;;;;;4909327;29;20066;-60
2021/05/30 07:16:47;;;;;;;0.35;0.30;;;;;;;;;;4921825;28;20158;-60
2021/05/30 07:19:12;;;;;;;0.73;0.73;;;;;;;;;;4905711;29;20049;-60
2021/05/30 07:21:42;;;;;;;0.52;0.52;;;;;;;;;;4908932;29;20146;-60
2021/05/30 07:24:08;;;;;;;1.10;0.52;;;;;;;;;;4903512;29;20066;-59
2021/05/30 07:26:36;;;;;;;0.00;0.00;;;;;;;;;;4907197;29;20032;-60
2021/05/30 07:29:02;;;;;;;0.00;0.00;;;;;;;;;;4891171;29;20067;-60
2021/05/30 07:31:28;;;;;;;0.00;0.00;;;;;;;;;;4906963;29;22060;-59
2021/05/30 07:33:54;;;;;;;0.00;0.00;;;;;;;;;;4908003;29;20032;-59
2021/05/30 07:36:24;;;;;;;0.30;0.30;;;;;;;;;;4908500;29;20098;-59
2021/05/30 07:38:51;;;;;;;0.10;0.10;;;;;;;;;;4907398;29;20088;-60
2021/05/30 07:41:17;;;;;;;0.00;0.00;;;;;;;;;;4894230;29;20075;-60
2021/05/30 07:43:43;;;;;;;0.10;0.10;;;;;;;;;;4907663;29;20095;-60
2021/05/30 07:46:08;;;;;;;0.22;0.10;;;;;;;;;;4897683;29;20062;-59
2021/05/30 07:48:34;;;;;;;0.00;0.00;;;;;;;;;;4906851;29;20051;-59
2021/05/30 07:50:59;;;;;;;3.47;1.27;;;;;;;;;;4912689;29;20051;-60
2021/05/30 07:53:26;;;;;;;0.10;0.10;;;;;;;;;;4907338;29;20034;-61
2021/05/30 07:55:51;;;;;;;0.00;0.00;;;;;;;;;;4888871;29;20043;-60
2021/05/30 07:58:17;;;;;;;0.00;0.00;;;;;;;;;;4893152;29;20070;-60
2021/05/30 08:00:43;;;;;;;0.00;0.00;;;;;;;;;;4904986;29;20147;-60
2021/05/30 08:03:08;;;;;;;0.13;0.13;;;;;;;;;;4891799;29;20036;-60
2021/05/30 08:05:34;;;;;;;0.10;0.10;;;;;;;;;;4908450;29;20036;-62
2021/05/30 08:08:00;;;;;;;0.03;0.03;;;;;;;;;;4904397;29;20042;-60
2021/05/30 08:10:29;;;;;;;0.10;0.10;;;;;;;;;;4905342;29;20110;-60
2021/05/30 08:12:55;;;;;;;0.10;0.10;;;;;;;;;;4906307;29;20040;-60
2021/05/30 08:15:23;;;;;;;0.00;0.00;;;;;;;;;;4897160;29;20024;-60
2021/05/30 08:17:54;;;;;;;0.10;0.10;;;;;;;;;;4920489;28;21577;-62
2021/05/30 08:20:20;;;;;;;0.35;0.35;;;;;;;;;;4906654;29;20036;-61
2021/05/30 08:22:49;;;;;;;0.20;0.20;;;;;;;;;;4907129;29;20024;-60
2021/05/30 08:25:17;;;;;;;0.00;0.00;;;;;;;;;;4908523;29;20039;-60
2021/05/30 08:27:44;;;;;;;0.00;0.00;;;;;;;;;;4906673;29;20030;-61
2021/05/30 08:30:10;;;;;;;0.00;0.00;;;;;;;;;;4908791;29;20351;-62
2021/05/30 08:32:36;;;;;;;0.00;0.00;;;;;;;;;;4891417;29;20046;-60
2021/05/30 08:35:03;;;;;;;0.10;0.05;;;;;;;;;;4909054;29;20035;-60
2021/05/30 08:37:28;;;;;;;0.00;0.00;;;;;;;;;;4907217;29;20031;-60
2021/05/30 08:39:56;;;;;;;0.13;0.13;;;;;;;;;;4909145;29;20028;-60
2021/05/30 08:42:23;;;;;;;0.00;0.00;;;;;;;;;;4904580;29;20119;-60
2021/05/30 08:44:49;;;;;;;0.60;0.43;;;;;;;;;;4907095;29;20055;-61
2021/05/30 08:47:19;;;;;;;0.00;0.00;;;;;;;;;;4906125;29;20107;-60
2021/05/30 08:49:45;;;;;;;3.40;0.65;;;;;;;;;;4907631;29;20024;-60
2021/05/30 08:52:12;;;;;;;0.10;0.10;;;;;;;;;;4903827;29;20057;-60
2021/05/30 08:54:38;;;;;;;0.15;0.15;;;;;;;;;;4907999;29;20085;-60
2021/05/30 08:57:03;;;;;;;0.00;0.00;;;;;;;;;;4906767;29;20392;-60
2021/05/30 08:59:39;;;;;;;0.63;0.63;;;;;;;;;;4908049;29;20051;-61
2021/05/30 09:02:12;;;;;;;0.00;0.00;;;;;;;;;;4906348;29;20036;-61
2021/05/30 09:04:42;;;;;;;0.00;0.00;;;;;;;;;;4918506;28;20035;-60
2021/05/30 09:07:08;;;;;;;0.75;0.38;;;;;;;;;;4906237;29;20046;-61
2021/05/30 09:09:43;;;;;;;0.00;0.00;;;;;;;;;;4907909;29;20603;-60
2021/05/30 09:12:37;;;;;;;1.33;0.55;;;;;;;;;;4904586;29;20040;-60
2021/05/30 09:15:09;;;;;;;0.00;0.00;;;;;;;;;;4890126;29;21956;-60
2021/05/30 09:17:35;;;;;;;0.17;0.17;;;;;;;;;;4920663;28;20066;-61
2021/05/30 09:20:01;;;;;;;0.65;0.52;;;;;;;;;;4908519;29;20566;-60
2021/05/30 09:22:29;;;;;;;0.20;0.20;;;;;;;;;;4920203;28;20036;-60
2021/05/30 09:25:10;;;;;;;0.20;0.20;;;;;;;;;;4920571;28;20032;-60
2021/05/30 09:27:46;;;;;;;0.00;0.00;;;;;;;;;;4904823;29;21134;-61
2021/05/30 09:30:19;;;;;;;0.38;0.22;;;;;;;;;;4904412;29;20102;-61
2021/05/30 09:32:54;;;;;;;0.00;0.00;;;;;;;;;;4919120;28;20067;-61
2021/05/30 09:35:23;;;;;;;0.10;0.10;;;;;;;;;;4905153;29;20111;-60
2021/05/30 09:37:58;;;;;;;0.00;0.00;;;;;;;;;;4901266;29;20059;-61
2021/05/30 09:40:33;;;;;;;0.13;0.13;;;;;;;;;;4906626;29;20036;-60
2021/05/30 09:43:07;;;;;;;0.08;0.08;;;;;;;;;;4905288;29;20034;-60
2021/05/30 09:45:32;;;;;;;0.65;0.20;;;;;;;;;;4904747;29;20055;-60
2021/05/30 09:48:02;;;;;;;0.20;0.20;;;;;;;;;;4903809;29;20115;-61
2021/05/30 09:50:32;;;;;;;0.00;0.00;;;;;;;;;;4904850;29;20032;-61
2021/05/30 09:52:59;;;;;;;3.10;0.38;;;;;;;;;;4905316;29;20556;-60
2021/05/30 09:55:33;;;;;;;0.10;0.10;;;;;;;;;;4908041;29;20942;-60
2021/05/30 09:58:05;;;;;;;0.20;0.20;;;;;;;;;;4909212;29;20582;-60
2021/05/30 10:00:31;;;;;;;0.13;0.13;;;;;;;;;;4909085;29;20042;-61
2021/05/30 10:02:57;;;;;;;0.10;0.10;;;;;;;;;;4921468;28;20030;-61
2021/05/30 10:05:23;;;;;;;0.20;0.20;;;;;;;;;;4924542;28;20036;-60
2021/05/30 10:07:51;;;;;;;0.40;0.15;;;;;;;;;;4910013;29;20043;-60
2021/05/30 10:10:17;;;;;;;0.00;0.00;;;;;;;;;;4910017;29;20029;-60
2021/05/30 10:12:46;;;;;;;0.10;0.10;;;;;;;;;;4909936;29;20494;-60
2021/05/30 10:15:11;;;;;;;0.00;0.00;;;;;;;;;;4911414;29;20160;-60
2021/05/30 10:17:38;;;;;;;1.25;0.28;;;;;;;;;;4891455;29;20035;-60
2021/05/30 10:20:09;;;;;;;0.00;0.00;;;;;;;;;;4912138;29;20027;-60
2021/05/30 10:22:38;;;;;;;1.75;0.05;;;;;;;;;;4910221;29;20138;-61
2021/05/30 10:25:04;;;;;;;0.00;0.00;;;;;;;;;;4924219;28;20036;-59
2021/05/30 10:27:31;;;;;;;0.00;0.00;;;;;;;;;;4922940;28;20036;-61
2021/05/30 10:30:02;;;;;;;0.55;0.47;;;;;;;;;;4905859;29;20495;-60
2021/05/30 10:32:28;;;;;;;0.10;0.10;;;;;;;;;;4909354;29;20075;-60
2021/05/30 10:35:13;;;;;;;0.10;0.10;;;;;;;;;;4909663;29;20123;-61
2021/05/30 10:37:39;;;;;;;0.15;0.15;;;;;;;;;;4910108;29;20123;-60
2021/05/30 10:40:25;;;;;;;0.00;0.00;;;;;;;;;;4909533;29;20036;-62
2021/05/30 10:45:37;;;;;;;0.00;0.00;;;;;;;;;;4909329;29;20303;-61
2021/05/30 10:48:03;;;;;;;2.65;0.52;;;;;;;;;;4907521;29;20032;-58
2021/05/30 10:50:40;;;;;;;3.53;0.30;;;;;;;;;;4909826;29;20918;-58
2021/05/30 10:53:24;;;;;;;4.03;0.95;;;;;;;;;;4907162;29;20597;-60
2021/05/30 10:55:50;;;;;;;0.30;0.08;;;;;;;;;;4909247;29;20447;-59
2021/05/30 10:58:16;;;;;;;0.17;0.17;;;;;;;;;;4892665;29;20043;-59
2021/05/30 11:00:45;;;;;;;0.28;0.28;;;;;;;;;;4907257;29;20035;-59
2021/05/30 11:03:13;;;;;;;0.00;0.00;;;;;;;;;;4906066;29;20032;-58
2021/05/30 11:05:41;;;;;;;5.47;0.43;;;;;;;;;;4906982;29;20065;-58
2021/05/30 11:08:30;;;;;;;0.20;0.20;;;;;;;;;;4907962;29;20031;-60
2021/05/30 11:11:11;;;;;;;0.08;0.08;;;;;;;;;;4908049;29;20126;-60
2021/05/30 11:13:55;;;;;;;0.30;0.10;;;;;;;;;;4908981;29;20575;-59
2021/05/30 11:16:22;;;;;;;0.10;0.10;;;;;;;;;;4908788;29;20035;-58
2021/05/30 11:19:15;;;;;;;0.20;0.10;;;;;;;;;;4909237;29;20058;-61
2021/05/30 11:21:44;;;;;;;0.13;0.13;;;;;;;;;;4907781;29;20047;-61
2021/05/30 11:24:17;;;;;;;0.00;0.00;;;;;;;;;;4906629;29;20040;-59
2021/05/30 11:26:56;;;;;;;0.22;0.22;;;;;;;;;;4908555;29;20032;-60
2021/05/30 11:29:24;;;;;;;0.00;0.00;;;;;;;;;;4906642;29;20023;-59
2021/05/30 11:31:53;;;;;;;0.00;0.00;;;;;;;;;;4905958;29;20531;-61
2021/05/30 11:34:19;;;;;;;0.17;0.10;;;;;;;;;;4922694;28;20036;-60
2021/05/30 11:36:48;;;;;;;0.20;0.20;;;;;;;;;;4908798;29;20036;-63
2021/05/30 11:39:15;;;;;;;0.00;0.00;;;;;;;;;;4893370;29;20039;-61
2021/05/30 11:41:52;;;;;;;0.00;0.00;;;;;;;;;;4907323;29;20039;-61
2021/05/30 11:44:24;;;;;;;0.20;0.10;;;;;;;;;;4907975;29;20031;-61
2021/05/30 11:46:52;;;;;;;0.00;0.00;;;;;;;;;;4907405;29;20066;-61
2021/05/30 11:49:19;;;;;;;0.43;0.38;;;;;;;;;;4908548;29;20894;-62
2021/05/30 11:51:45;;;;;;;4.15;0.80;;;;;;;;;;4918178;28;20035;-61
2021/05/30 11:54:14;;;;;;;0.08;0.08;;;;;;;;;;4904848;29;20052;-59
2021/05/30 11:56:43;;;;;;;0.10;0.10;;;;;;;;;;4890182;29;20032;-62
2021/05/30 11:59:09;;;;;;;0.10;0.10;;;;;;;;;;4922948;28;20027;-60
2021/05/30 12:01:48;;;;;;;0.05;0.05;;;;;;;;;;4907463;29;20644;-60
2021/05/30 12:04:25;;;;;;;0.00;0.00;;;;;;;;;;4905062;29;20123;-61
2021/05/30 12:06:51;;;;;;;0.60;0.20;;;;;;;;;;4904389;29;20046;-61
2021/05/30 12:09:20;;;;;;;0.08;0.08;;;;;;;;;;4890756;29;20035;-61
2021/05/30 12:11:45;;;;;;;0.00;0.00;;;;;;;;;;4906731;29;20097;-59
2021/05/30 12:14:14;;;;;;;0.10;0.08;;;;;;;;;;4908031;29;20950;-60
2021/05/30 12:16:39;;;;;;;0.35;0.32;;;;;;;;;;4906200;29;20113;-59
2021/05/30 12:19:05;;;;;;;0.22;0.22;;;;;;;;;;4906067;29;20036;-60
2021/05/30 12:21:38;;;;;;;0.85;0.32;;;;;;;;;;4919811;28;20642;-60
2021/05/30 12:24:15;;;;;;;0.70;0.28;;;;;;;;;;4906859;29;20062;-60
2021/05/30 12:26:45;;;;;;;1.65;0.45;;;;;;;;;;4907056;29;20050;-60
2021/05/30 12:29:11;;;;;;;0.30;0.30;;;;;;;;;;4890399;29;20055;-59
2021/05/30 12:31:37;;;;;;;0.00;0.00;;;;;;;;;;4903999;29;20035;-60
2021/05/30 12:34:07;;;;;;;0.30;0.30;;;;;;;;;;4904887;29;20026;-60
2021/05/30 12:36:36;;;;;;;0.20;0.20;;;;;;;;;;4890646;29;20028;-60
2021/05/30 12:39:06;;;;;;;0.08;0.08;;;;;;;;;;4906373;29;20038;-60
2021/05/30 12:41:33;;;;;;;0.63;0.55;;;;;;;;;;4906011;29;20044;-60
2021/05/30 12:44:09;;;;;;;0.13;0.13;;;;;;;;;;4906773;29;20418;-60
2021/05/30 12:46:37;;;;;;;0.08;0.08;;;;;;;;;;4905247;29;20151;-59
2021/05/30 12:49:28;;;;;;;0.00;0.00;;;;;;;;;;4905076;29;20047;-59
2021/05/30 12:51:57;;;;;;;0.43;0.40;;;;;;;;;;4905263;29;20134;-60
2021/05/30 12:54:25;;;;;;;0.25;0.10;;;;;;;;;;4890482;29;20500;-61
2021/05/30 12:56:56;;;;;;;8.57;1.10;;;;;;;;;;4904738;29;20205;-61
2021/05/30 12:59:24;;;;;;;;;;;;;;;;;;4921096;28;20024;-60
2021/05/30 13:01:51;;;;;;;0.00;0.00;;;;;;;;;;4904072;29;20013;-61
2021/05/30 13:04:39;;;;;;;0.10;0.10;;;;;;;;;;4888910;29;20208;-60
2021/05/30 13:07:08;;;;;;;0.10;0.10;;;;;;;;;;4901246;29;20178;-61
2021/05/30 13:09:45;;;;;;;0.00;0.00;;;;;;;;;;4906342;29;20035;-60
2021/05/30 13:12:30;;;;;;;0.10;0.10;;;;;;;;;;4901884;29;20035;-60
2021/05/30 13:15:07;;;;;;;0.00;0.00;;;;;;;;;;4905567;29;20036;-61
2021/05/30 13:17:36;;;;;;;0.00;0.00;;;;;;;;;;4904501;29;20499;-61
2021/05/30 13:20:03;;;;;;;0.10;0.10;;;;;;;;;;4902508;29;20051;-61
2021/05/30 13:22:30;;;;;;;0.20;0.20;;;;;;;;;;4906381;29;20054;-61
2021/05/30 13:24:56;;;;;;;0.35;0.35;;;;;;;;;;4904415;29;20031;-60
2021/05/30 13:27:25;;;;;;;1.13;0.25;;;;;;;;;;4906304;29;20031;-60
2021/05/30 13:30:06;;;;;;;0.03;0.03;;;;;;;;;;4892146;29;20146;-61
2021/05/30 13:32:34;;;;;;;0.00;0.00;;;;;;;;;;4906487;29;20036;-60
2021/05/30 13:35:03;;;;;;;0.17;0.17;;;;;;;;;;4903570;29;20023;-60
2021/05/30 13:37:29;;;;;;;0.00;0.00;;;;;;;;;;4918619;29;20153;-60
2021/05/30 13:39:55;;;;;;;0.00;0.00;;;;;;;;;;4907655;29;20129;-60
2021/05/30 13:42:25;;;;;;;0.00;0.00;;;;;;;;;;4917729;28;20046;-60
2021/05/30 13:44:51;;;;;;;0.00;0.00;;;;;;;;;;4906892;29;20513;-61
2021/05/30 13:47:17;;;;;;;1.10;0.32;;;;;;;;;;4916175;28;20046;-60
2021/05/30 13:49:43;;;;;;;0.08;0.08;;;;;;;;;;4906528;29;20043;-61
2021/05/30 13:52:09;;;;;;;0.15;0.15;;;;;;;;;;4905960;29;20036;-61
2021/05/30 13:54:37;;;;;;;0.30;0.30;;;;;;;;;;4891295;29;20598;-61
2021/05/30 13:57:05;;;;;;;1.70;0.80;;;;;;;;;;4903143;29;20601;-61
2021/05/30 13:59:31;;;;;;;0.00;0.00;;;;;;;;;;4906457;29;20027;-60
2021/05/30 14:02:00;;;;;;;0.55;0.38;;;;;;;;;;4906672;29;21312;-60
2021/05/30 14:04:26;;;;;;;0.90;0.45;;;;;;;;;;4890489;29;20469;-60
2021/05/30 14:06:53;;;;;;;0.40;0.38;;;;;;;;;;4904688;29;20050;-60
2021/05/30 14:09:21;;;;;;;0.28;0.28;;;;;;;;;;4904716;29;20067;-59
2021/05/30 14:11:47;;;;;;;0.10;0.10;;;;;;;;;;4903671;29;20035;-61
2021/05/30 14:14:13;;;;;;;0.00;0.00;;;;;;;;;;4896485;29;20032;-60
2021/05/30 14:16:42;;;;;;;0.10;0.10;;;;;;;;;;4905514;29;20031;-61
2021/05/30 14:19:15;;;;;;;0.03;0.03;;;;;;;;;;4906566;29;20027;-62
2021/05/30 14:21:41;;;;;;;0.40;0.40;;;;;;;;;;4904062;29;20129;-63
2021/05/30 14:24:08;;;;;;;0.00;0.00;;;;;;;;;;4920940;28;20492;-61
2021/05/30 14:26:34;;;;;;;0.00;0.00;;;;;;;;;;4895299;29;20055;-60
2021/05/30 14:29:03;;;;;;;0.00;0.00;;;;;;;;;;4895033;29;20543;-60
2021/05/30 14:31:29;;;;;;;0.25;0.25;;;;;;;;;;4919926;29;20059;-60
2021/05/30 14:33:56;;;;;;;0.22;0.22;;;;;;;;;;4904385;29;20678;-60
2021/05/30 14:36:22;;;;;;;0.00;0.00;;;;;;;;;;4891437;29;20031;-61
2021/05/30 14:38:48;;;;;;;0.00;0.00;;;;;;;;;;4905262;29;20028;-61
2021/05/30 14:41:14;;;;;;;0.17;0.15;;;;;;;;;;4907378;29;20031;-60
2021/05/30 14:43:40;;;;;;;0.00;0.00;;;;;;;;;;4899616;29;20106;-61
2021/05/30 14:46:06;;;;;;;0.10;0.10;;;;;;;;;;4904669;29;20508;-61
2021/05/30 14:48:32;;;;;;;0.00;0.00;;;;;;;;;;4908066;29;20036;-60
2021/05/30 14:51:02;;;;;;;0.52;0.20;;;;;;;;;;4913562;28;20044;-64
2021/05/30 14:53:28;;;;;;;0.00;0.00;;;;;;;;;;4907119;29;20038;-60